createdAt,value
2018-02-05T00:02:31.961Z,90.70
2018-02-05T00:05:06.000Z,90.90
2018-02-05T00:07:39.773Z,90.90
2018-02-05T00:10:13.711Z,90.80
2018-02-05T00:12:47.714Z,91.00
2018-02-05T00:15:21.387Z,91.40
2018-02-05T00:17:55.284Z,91.40
2018-02-05T00:20:30.226Z,92.20
2018-02-05T00:23:04.532Z,92.20
2018-02-05T00:25:38.872Z,92.10
2018-02-05T00:28:13.221Z,92.40
2018-02-05T00:30:47.803Z,92.90
2018-02-05T00:33:21.834Z,93.00
2018-02-05T00:36:02.879Z,93.20
2018-02-05T00:38:36.750Z,93.30
2018-02-05T00:41:11.325Z,92.50
2018-02-05T00:43:45.172Z,92.50
2018-02-05T00:46:19.218Z,92.60
2018-02-05T00:48:53.597Z,92.60
2018-02-05T00:51:28.375Z,92.40
2018-02-05T00:54:02.676Z,92.40
2018-02-05T00:56:37.600Z,93.10
2018-02-05T00:59:11.810Z,93.00
2018-02-05T01:01:45.690Z,93.30
2018-02-05T01:04:20.268Z,94.00
2018-02-05T01:06:54.379Z,93.90
2018-02-05T01:09:28.981Z,93.90
2018-02-05T01:12:02.899Z,93.60
2018-02-05T01:14:36.878Z,93.50
2018-02-05T01:17:11.299Z,93.90
2018-02-05T01:19:45.029Z,93.90
2018-02-05T01:22:19.407Z,94.00
2018-02-05T01:24:53.501Z,93.90
2018-02-05T01:27:27.426Z,93.80
2018-02-05T01:30:01.342Z,93.90
2018-02-05T01:32:36.166Z,94.10
2018-02-05T01:35:10.463Z,94.40
2018-02-05T01:37:44.440Z,93.50
2018-02-05T01:40:18.854Z,93.40
2018-02-05T01:42:52.870Z,93.60
2018-02-05T01:45:26.782Z,93.90
2018-02-05T01:48:01.455Z,94.00
2018-02-05T01:50:35.385Z,93.90
2018-02-05T01:53:09.423Z,93.80
2018-02-05T01:55:43.616Z,93.90
2018-02-05T01:58:17.673Z,94.20
2018-02-05T02:00:51.782Z,94.20
2018-02-05T02:16:34.020Z,94.00
2018-02-05T02:19:09.030Z,94.10
2018-02-05T02:21:43.214Z,94.50
2018-02-05T02:24:18.019Z,94.40
2018-02-05T02:26:52.918Z,94.10
2018-02-05T02:29:27.808Z,94.10
2018-02-05T02:32:02.726Z,93.90
2018-02-05T02:34:36.793Z,93.90
2018-02-05T02:37:11.748Z,93.90
2018-02-05T02:39:45.713Z,93.80
2018-02-05T02:42:19.977Z,93.90
2018-02-05T02:44:54.987Z,94.10
2018-02-05T02:47:29.723Z,94.00
2018-02-05T02:50:04.419Z,94.00
2018-02-05T02:52:39.381Z,94.10
2018-02-05T02:55:13.287Z,94.10
2018-02-05T02:57:48.010Z,95.00
2018-02-05T03:00:22.984Z,95.20
2018-02-05T03:02:56.853Z,95.20
2018-02-05T03:05:31.693Z,94.70
2018-02-05T03:08:05.504Z,94.70
2018-02-05T03:10:39.597Z,94.30
2018-02-05T03:13:14.296Z,93.40
2018-02-05T03:15:48.301Z,93.40
2018-02-05T03:18:22.184Z,93.40
2018-02-05T03:20:56.668Z,93.20
2018-02-05T03:23:31.262Z,93.20
2018-02-05T03:26:05.563Z,93.20
2018-02-05T03:28:40.276Z,93.30
2018-02-05T03:31:14.943Z,93.30
2018-02-05T03:33:49.670Z,93.00
2018-02-05T03:36:24.430Z,92.70
2018-02-05T03:38:59.035Z,92.80
2018-02-05T03:41:33.735Z,92.80
2018-02-05T03:44:07.611Z,92.80
2018-02-05T03:46:42.573Z,92.80
2018-02-05T03:49:18.227Z,92.60
2018-02-05T03:51:52.460Z,92.60
2018-02-05T03:54:26.684Z,92.50
2018-02-05T03:57:01.389Z,92.60
2018-02-05T03:59:36.115Z,91.90
2018-02-05T04:02:10.040Z,91.90
2018-02-05T04:04:44.947Z,92.10
2018-02-05T04:07:18.975Z,92.10
2018-02-05T04:09:53.995Z,92.00
2018-02-05T04:12:28.147Z,92.10
2018-02-05T04:15:02.848Z,92.30
2018-02-05T04:17:37.724Z,92.00
2018-02-05T04:20:11.271Z,92.00
2018-02-05T04:22:45.871Z,91.70
2018-02-05T04:25:20.610Z,91.60
2018-02-05T04:27:54.987Z,91.60
2018-02-05T04:30:28.740Z,91.30
2018-02-05T04:33:03.747Z,91.30
2018-02-05T04:35:37.538Z,91.10
2018-02-05T04:38:11.354Z,91.30
2018-02-05T04:40:45.807Z,91.40
2018-02-05T04:43:20.319Z,91.70
2018-02-05T04:45:55.061Z,91.70
2018-02-05T04:48:29.804Z,91.70
2018-02-05T04:51:03.970Z,91.80
2018-02-05T04:53:37.875Z,91.60
2018-02-05T04:56:12.689Z,90.80
2018-02-05T04:58:47.944Z,90.60
2018-02-05T05:01:22.016Z,90.50
2018-02-05T05:03:55.770Z,90.70
2018-02-05T05:06:32.496Z,91.20
2018-02-05T05:09:07.476Z,91.30
2018-02-05T05:11:42.265Z,91.50
2018-02-05T05:14:16.841Z,91.80
2018-02-05T05:16:50.644Z,91.80
2018-02-05T05:19:25.134Z,91.50
2018-02-05T05:22:00.209Z,90.90
2018-02-05T05:24:35.032Z,91.10
2018-02-05T05:27:10.268Z,90.90
2018-02-05T05:29:44.411Z,90.90
2018-02-05T05:32:19.050Z,91.30
2018-02-05T05:34:53.724Z,90.90
2018-02-05T05:37:27.893Z,90.90
2018-02-05T05:40:02.442Z,90.10
2018-02-05T05:42:37.083Z,88.80
2018-02-05T05:45:11.392Z,88.80
2018-02-05T05:47:46.004Z,88.50
2018-02-05T05:50:20.552Z,88.40
2018-02-05T05:52:54.449Z,88.40
2018-02-05T05:55:28.240Z,87.80
2018-02-05T05:58:02.344Z,87.20
2018-02-05T06:00:36.244Z,86.40
2018-02-05T06:03:10.976Z,86.50
2018-02-05T06:05:45.879Z,86.70
2018-02-05T06:08:19.781Z,86.60
2018-02-05T06:10:54.325Z,86.70
2018-02-05T06:13:28.145Z,86.70
2018-02-05T06:16:02.260Z,86.50
2018-02-05T06:18:35.854Z,86.40
2018-02-05T06:21:09.367Z,86.50
2018-02-05T06:23:42.974Z,86.00
2018-02-05T06:26:16.886Z,86.00
2018-02-05T06:28:50.987Z,86.00
2018-02-05T06:31:24.685Z,86.00
2018-02-05T06:33:58.387Z,86.30
2018-02-05T06:36:32.992Z,86.00
2018-02-05T06:39:07.025Z,86.00
2018-02-05T06:41:40.798Z,86.10
2018-02-05T06:44:14.853Z,85.90
2018-02-05T06:46:49.044Z,86.40
2018-02-05T06:49:23.277Z,86.70
2018-02-05T06:52:09.576Z,86.60
2018-02-05T06:54:55.324Z,86.60
2018-02-05T06:57:28.965Z,86.50
2018-02-05T07:00:03.152Z,85.70
2018-02-05T07:02:37.730Z,84.70
2018-02-05T07:05:12.357Z,84.40
2018-02-05T07:07:46.250Z,84.40
2018-02-05T07:10:20.278Z,84.40
2018-02-05T07:12:54.147Z,84.10
2018-02-05T07:15:27.641Z,84.30
2018-02-05T07:18:01.394Z,84.10
2018-02-05T07:20:35.329Z,83.90
2018-02-05T07:23:09.858Z,82.70
2018-02-05T07:25:44.788Z,82.10
2018-02-05T07:28:18.540Z,82.10
2018-02-05T07:30:53.218Z,82.20
2018-02-05T07:33:27.989Z,82.10
2018-02-05T07:36:02.449Z,81.80
2018-02-05T07:38:36.259Z,81.70
2018-02-05T07:41:11.117Z,81.80
2018-02-05T07:43:45.226Z,81.80
2018-02-05T07:46:19.169Z,81.80
2018-02-05T07:48:53.504Z,81.90
2018-02-05T07:51:28.034Z,82.50
2018-02-05T07:54:02.375Z,82.50
2018-02-05T07:56:36.888Z,82.70
2018-02-05T07:59:10.974Z,82.80
2018-02-05T08:01:45.491Z,82.10
2018-02-05T08:04:19.401Z,81.90
2018-02-05T08:06:53.691Z,81.80
2018-02-05T08:09:27.377Z,81.50
2018-02-05T08:12:01.441Z,81.20
2018-02-05T08:14:35.550Z,81.30
2018-02-05T08:17:10.525Z,81.30
2018-02-05T08:19:45.023Z,81.20
2018-02-05T08:22:18.931Z,81.90
2018-02-05T08:24:53.302Z,81.40
2018-02-05T08:27:28.108Z,81.50
2018-02-05T08:30:01.672Z,81.50
2018-02-05T08:32:36.732Z,80.70
2018-02-05T08:35:10.995Z,80.70
2018-02-05T08:37:45.033Z,80.70
2018-02-05T08:40:19.872Z,79.20
2018-02-05T08:42:53.591Z,79.20
2018-02-05T08:45:27.419Z,79.40
2018-02-05T08:48:01.998Z,78.50
2018-02-05T08:50:35.782Z,78.10
2018-02-05T08:53:09.697Z,78.20
2018-02-05T08:55:43.602Z,77.60
2018-02-05T08:58:17.986Z,78.00
2018-02-05T09:00:52.059Z,78.40
2018-02-05T09:03:25.659Z,76.70
2018-02-05T09:05:59.370Z,76.10
2018-02-05T09:08:34.080Z,75.40
2018-02-05T09:11:08.768Z,74.90
2018-02-05T09:13:43.468Z,74.30
2018-02-05T09:16:17.607Z,74.30
2018-02-05T09:18:51.512Z,71.60
2018-02-05T09:21:25.262Z,71.20
2018-02-05T09:23:59.879Z,67.40
2018-02-05T09:26:33.403Z,67.40
2018-02-05T09:29:06.900Z,67.30
2018-02-05T09:31:40.639Z,67.00
2018-02-05T09:34:14.383Z,67.70
2018-02-05T09:36:47.915Z,68.00
2018-02-05T09:39:21.976Z,68.50
2018-02-05T09:41:55.623Z,68.60
2018-02-05T09:44:29.403Z,68.00
2018-02-05T09:47:03.011Z,69.10
2018-02-05T09:49:36.723Z,69.90
2018-02-05T09:52:10.221Z,69.50
2018-02-05T09:54:43.723Z,70.20
2018-02-05T09:57:17.457Z,70.30
2018-02-05T09:59:51.285Z,68.70
2018-02-05T10:02:25.378Z,68.30
2018-02-05T10:04:59.915Z,66.70
2018-02-05T10:07:33.487Z,66.60
2018-02-05T10:10:06.991Z,64.80
2018-02-05T10:12:42.128Z,65.10
2018-02-05T10:15:15.813Z,65.10
2018-02-05T10:17:49.975Z,64.80
2018-02-05T10:20:23.510Z,63.60
2018-02-05T10:22:56.986Z,64.10
2018-02-05T10:25:30.676Z,62.40
2018-02-05T10:28:04.352Z,61.40
2018-02-05T10:30:38.046Z,59.70
2018-02-05T10:33:11.876Z,59.50
2018-02-05T10:35:45.609Z,59.80
2018-02-05T10:38:19.600Z,61.10
2018-02-05T10:40:53.576Z,59.60
2018-02-05T10:43:27.367Z,60.30
2018-02-05T10:46:01.652Z,62.00
2018-02-05T10:48:36.657Z,61.00
2018-02-05T10:51:11.028Z,61.60
2018-02-05T10:53:45.514Z,58.40
2018-02-05T10:56:19.279Z,58.40
2018-02-05T10:58:53.119Z,60.30
2018-02-05T11:01:27.178Z,58.70
2018-02-05T11:04:01.828Z,58.60
2018-02-05T11:06:36.260Z,58.60
2018-02-05T11:09:10.423Z,58.20
2018-02-05T11:11:44.366Z,58.30
2018-02-05T11:14:19.104Z,59.60
2018-02-05T11:16:53.157Z,59.70
2018-02-05T11:19:27.861Z,57.00
2018-02-05T11:22:01.435Z,57.00
2018-02-05T11:24:35.132Z,60.10
2018-02-05T11:27:09.258Z,57.50
2018-02-05T11:29:43.182Z,55.50
2018-02-05T11:32:17.964Z,57.00
2018-02-05T11:34:52.613Z,55.90
2018-02-05T11:37:27.255Z,57.00
2018-02-05T11:40:00.870Z,56.90
2018-02-05T11:42:34.560Z,53.70
2018-02-05T11:45:08.459Z,54.00
2018-02-05T11:47:42.330Z,54.00
2018-02-05T11:50:16.816Z,53.00
2018-02-05T11:52:51.437Z,54.20
2018-02-05T11:55:25.998Z,53.90
2018-02-05T11:58:00.907Z,54.30
2018-02-05T12:00:34.910Z,54.30
2018-02-05T12:03:08.954Z,54.90
2018-02-05T12:05:43.107Z,55.70
2018-02-05T12:08:16.775Z,57.20
2018-02-05T12:10:50.566Z,55.20
2018-02-05T12:13:25.041Z,53.70
2018-02-05T12:15:59.775Z,54.30
2018-02-05T12:18:34.200Z,52.60
2018-02-05T12:21:08.254Z,52.60
2018-02-05T12:23:42.411Z,52.90
2018-02-05T12:26:16.194Z,54.60
2018-02-05T12:28:50.218Z,52.50
2018-02-05T12:31:24.207Z,52.10
2018-02-05T12:33:58.062Z,51.50
2018-02-05T12:36:31.821Z,52.50
2018-02-05T12:39:06.552Z,51.60
2018-02-05T12:41:41.083Z,51.40
2018-02-05T12:44:15.064Z,51.30
2018-02-05T12:46:49.300Z,52.80
2018-02-05T12:49:23.857Z,53.50
2018-02-05T12:51:58.116Z,54.70
2018-02-05T12:54:33.086Z,52.90
2018-02-05T12:57:08.874Z,53.00
2018-02-05T12:59:48.949Z,53.00
2018-02-05T13:02:22.855Z,52.50
2018-02-05T13:04:56.882Z,51.50
2018-02-05T13:07:30.929Z,50.80
2018-02-05T13:10:05.904Z,53.20
2018-02-05T13:12:40.649Z,52.30
2018-02-05T13:15:15.455Z,53.60
2018-02-05T13:17:50.584Z,53.60
2018-02-05T13:20:26.265Z,54.40
2018-02-05T13:23:00.440Z,54.40
2018-02-05T13:25:35.096Z,54.50
2018-02-05T13:28:08.970Z,54.40
2018-02-05T13:30:43.028Z,54.00
2018-02-05T13:33:16.919Z,52.90
2018-02-05T13:35:51.768Z,53.30
2018-02-05T13:38:25.600Z,53.30
2018-02-05T13:40:59.784Z,52.90
2018-02-05T13:43:34.140Z,53.70
2018-02-05T13:46:07.991Z,54.00
2018-02-05T13:48:42.565Z,53.30
2018-02-05T13:51:16.294Z,53.20
2018-02-05T13:53:51.020Z,55.50
2018-02-05T13:56:25.634Z,56.70
2018-02-05T13:58:59.203Z,56.70
2018-02-05T14:01:33.155Z,56.70
2018-02-05T14:04:07.011Z,56.20
2018-02-05T14:06:41.879Z,53.70
2018-02-05T14:09:16.798Z,53.30
2018-02-05T14:11:51.363Z,52.20
2018-02-05T14:14:25.384Z,52.30
2018-02-05T14:16:59.425Z,51.10
2018-02-05T14:19:34.069Z,50.60
2018-02-05T14:22:08.883Z,48.50
2018-02-05T14:24:42.709Z,48.50
2018-02-05T14:27:17.559Z,48.80
2018-02-05T14:29:52.311Z,48.00
2018-02-05T14:32:25.973Z,48.00
2018-02-05T14:34:59.706Z,48.10
2018-02-05T14:37:33.697Z,46.70
2018-02-05T14:40:08.774Z,49.80
2018-02-05T14:42:42.791Z,49.90
2018-02-05T14:45:16.354Z,52.20
2018-02-05T14:47:50.274Z,52.50
2018-02-05T14:50:25.385Z,51.60
2018-02-05T14:52:59.581Z,51.70
2018-02-05T14:55:33.459Z,52.60
2018-02-05T14:58:07.354Z,54.30
2018-02-05T15:00:41.201Z,55.20
2018-02-05T15:03:14.980Z,54.20
2018-02-05T15:05:48.716Z,55.00
2018-02-05T15:08:22.758Z,54.70
2018-02-05T15:10:56.906Z,55.60
2018-02-05T15:13:30.423Z,56.30
2018-02-05T15:16:05.161Z,54.80
2018-02-05T15:18:39.065Z,54.90
2018-02-05T15:21:12.776Z,54.80
2018-02-05T15:23:46.595Z,55.50
2018-02-05T15:26:20.463Z,53.50
2018-02-05T15:28:54.165Z,53.20
2018-02-05T15:31:28.216Z,51.00
2018-02-05T15:34:02.712Z,49.20
2018-02-05T15:36:37.959Z,49.30
2018-02-05T15:39:11.764Z,49.30
2018-02-05T15:41:46.406Z,52.30
2018-02-05T15:44:20.292Z,52.20
2018-02-05T15:46:53.795Z,54.80
2018-02-05T15:49:27.470Z,55.80
2018-02-05T15:52:01.173Z,56.00
2018-02-05T15:54:36.213Z,58.10
2018-02-05T15:57:11.016Z,58.70
2018-02-05T15:59:45.790Z,59.90
2018-02-05T16:02:20.552Z,59.50
2018-02-05T16:04:54.097Z,59.50
2018-02-05T16:07:28.694Z,60.00
2018-02-05T16:10:03.239Z,60.70
2018-02-05T16:12:36.958Z,60.70
2018-02-05T16:15:11.693Z,61.20
2018-02-05T16:17:46.329Z,61.60
2018-02-05T16:20:20.920Z,61.60
2018-02-05T16:22:55.861Z,63.00
2018-02-05T16:25:30.687Z,62.50
2018-02-05T16:28:04.901Z,62.50
2018-02-05T16:30:38.795Z,63.20
2018-02-05T16:33:13.534Z,63.40
2018-02-05T16:35:47.689Z,63.40
2018-02-05T16:38:21.556Z,64.10
2018-02-05T16:40:56.178Z,65.20
2018-02-05T16:43:30.551Z,65.10
2018-02-05T16:46:05.207Z,65.30
2018-02-05T16:48:39.068Z,65.30
2018-02-05T16:51:12.933Z,65.40
2018-02-05T16:53:47.027Z,65.90
2018-02-05T16:56:20.937Z,65.90
2018-02-05T16:58:55.073Z,66.90
2018-02-05T17:01:29.742Z,68.20
2018-02-05T17:04:03.696Z,68.00
2018-02-05T17:06:38.518Z,68.60
2018-02-05T17:09:13.015Z,69.10
2018-02-05T17:11:47.303Z,69.00
2018-02-05T17:14:20.837Z,69.10
2018-02-05T17:16:55.313Z,71.20
2018-02-05T17:19:29.034Z,71.10
2018-02-05T17:22:02.900Z,70.60
2018-02-05T17:24:36.638Z,72.50
2018-02-05T17:27:11.185Z,71.50
2018-02-05T17:29:45.460Z,71.90
2018-02-05T17:32:19.039Z,71.90
2018-02-05T17:34:53.511Z,72.80
2018-02-05T17:37:27.053Z,72.90
2018-02-05T17:40:00.944Z,73.40
2018-02-05T17:42:34.435Z,72.40
2018-02-05T17:45:08.821Z,73.60
2018-02-05T17:47:42.769Z,73.40
2018-02-05T17:50:23.790Z,72.90
2018-02-05T17:53:01.095Z,73.70
2018-02-05T17:55:35.361Z,73.90
2018-02-05T17:58:10.122Z,73.80
2018-02-05T18:00:43.974Z,73.90
2018-02-05T18:03:18.371Z,73.00
2018-02-05T18:05:52.076Z,73.00
2018-02-05T18:08:26.137Z,73.30
2018-02-05T18:10:59.595Z,73.60
2018-02-05T18:13:33.936Z,74.20
2018-02-05T18:16:08.650Z,74.20
2018-02-05T18:18:42.959Z,74.80
2018-02-05T18:21:17.557Z,75.80
2018-02-05T18:23:52.110Z,76.50
2018-02-05T18:26:26.205Z,76.50
2018-02-05T18:29:00.448Z,76.20
2018-02-05T18:31:34.637Z,75.30
2018-02-05T18:34:08.986Z,76.40
2018-02-05T18:36:43.599Z,76.80
2018-02-05T18:39:18.615Z,76.60
2018-02-05T18:41:52.410Z,76.70
2018-02-05T18:44:25.872Z,75.80
2018-02-05T18:46:59.372Z,75.90
2018-02-05T18:49:32.983Z,76.10
2018-02-05T18:52:06.671Z,76.70
2018-02-05T18:54:40.194Z,77.40
2018-02-05T18:57:13.895Z,77.40
2018-02-05T18:59:48.211Z,77.80
2018-02-05T19:02:22.602Z,77.70
2018-02-05T19:04:56.236Z,77.80
2018-02-05T19:07:32.987Z,78.60
2018-02-05T19:10:07.092Z,78.50
2018-02-05T19:12:40.717Z,78.80
2018-02-05T19:15:15.216Z,79.00
2018-02-05T19:17:48.785Z,78.90
2018-02-05T19:20:23.281Z,78.70
2018-02-05T19:22:57.206Z,79.20
2018-02-05T19:25:31.123Z,79.30
2018-02-05T19:28:05.081Z,79.20
2018-02-05T19:30:38.909Z,79.30
2018-02-05T19:33:12.710Z,79.50
2018-02-05T19:35:47.251Z,79.90
2018-02-05T19:38:21.406Z,79.80
2018-02-05T19:40:55.181Z,80.00
2018-02-05T19:43:29.691Z,80.10
2018-02-05T19:46:03.599Z,80.00
2018-02-05T19:48:37.754Z,80.50
2018-02-05T19:51:11.624Z,80.80
2018-02-05T19:53:46.339Z,80.90
2018-02-05T19:56:21.308Z,81.50
2018-02-05T19:58:55.060Z,82.20
2018-02-05T20:01:28.987Z,81.20
2018-02-05T20:04:02.987Z,80.60
2018-02-05T20:06:36.929Z,81.00
2018-02-05T20:09:10.600Z,79.90
2018-02-05T20:11:44.455Z,80.10
2018-02-05T20:14:18.209Z,80.00
2018-02-05T20:16:52.375Z,80.00
2018-02-05T20:19:26.088Z,80.70
2018-02-05T20:22:01.091Z,81.50
2018-02-05T20:24:34.756Z,81.40
2018-02-05T20:27:08.771Z,81.50
2018-02-05T20:29:43.254Z,81.90
2018-02-05T20:32:17.839Z,81.60
2018-02-05T20:34:51.506Z,81.60
2018-02-05T20:37:25.921Z,80.80
2018-02-05T20:40:00.663Z,80.60
2018-02-05T20:42:34.345Z,80.60
2018-02-05T20:45:08.086Z,81.20
2018-02-05T20:47:41.956Z,81.10
2018-02-05T20:50:15.816Z,80.90
2018-02-05T20:52:49.697Z,80.50
2018-02-05T20:55:23.942Z,80.40
2018-02-05T20:57:58.812Z,80.30
2018-02-05T21:00:32.945Z,80.40
2018-02-05T21:03:07.745Z,80.30
2018-02-05T21:05:42.421Z,80.30
2018-02-05T21:08:16.691Z,80.60
2018-02-05T21:10:50.390Z,80.30
2018-02-05T21:13:25.511Z,80.30
2018-02-05T21:15:59.717Z,80.20
2018-02-05T21:18:33.736Z,80.90
2018-02-05T21:21:07.590Z,81.50
2018-02-05T21:23:42.154Z,81.80
2018-02-05T21:26:16.394Z,81.80
2018-02-05T21:28:50.808Z,81.40
2018-02-05T21:31:24.684Z,81.10
2018-02-05T21:33:58.327Z,81.00
2018-02-05T21:36:32.192Z,81.20
2018-02-05T21:39:05.935Z,80.90
2018-02-05T21:41:40.501Z,80.50
2018-02-05T21:44:14.312Z,80.50
2018-02-05T21:46:48.172Z,80.70
2018-02-05T21:49:21.960Z,80.10
2018-02-05T21:51:56.384Z,80.40
2018-02-05T21:54:30.208Z,80.50
2018-02-05T21:57:05.016Z,79.80
2018-02-05T21:59:39.691Z,80.30
2018-02-05T22:02:13.471Z,80.30
2018-02-05T22:04:48.252Z,80.30
2018-02-05T22:07:22.152Z,80.20
2018-02-05T22:09:56.169Z,80.40
2018-02-05T22:12:30.931Z,80.40
2018-02-05T22:15:04.566Z,80.40
2018-02-05T22:17:38.690Z,80.20
2018-02-05T22:20:12.443Z,80.80
2018-02-05T22:22:50.890Z,80.40
2018-02-05T22:25:27.656Z,80.40
2018-02-05T22:28:01.964Z,80.50
2018-02-05T22:30:37.474Z,80.90
2018-02-05T22:33:11.105Z,80.50
2018-02-05T22:35:45.757Z,79.50
2018-02-05T22:38:19.893Z,79.40
2018-02-05T22:40:58.506Z,79.10
2018-02-05T22:43:32.963Z,78.80
2018-02-05T22:46:07.489Z,78.70
2018-02-05T22:48:42.190Z,79.10
2018-02-05T22:51:16.756Z,78.50
2018-02-05T22:53:51.720Z,77.90
2018-02-05T22:56:26.772Z,77.60
2018-02-05T22:59:00.713Z,77.60
2018-02-05T23:01:34.495Z,77.20
2018-02-05T23:04:09.318Z,77.50
2018-02-05T23:06:42.942Z,77.40
2018-02-05T23:09:16.763Z,76.90
2018-02-05T23:11:50.781Z,77.50
2018-02-05T23:14:25.068Z,77.50
2018-02-05T23:16:59.012Z,76.80
2018-02-05T23:19:33.079Z,76.70
2018-02-05T23:22:06.918Z,76.60
2018-02-05T23:24:40.862Z,76.60
2018-02-05T23:27:16.103Z,76.70
2018-02-05T23:29:51.109Z,76.70
2018-02-05T23:32:26.118Z,76.90
2018-02-05T23:35:00.720Z,76.60
2018-02-05T23:37:35.460Z,75.50
2018-02-05T23:40:09.792Z,76.00
2018-02-05T23:42:43.896Z,76.10
2018-02-05T23:45:17.825Z,74.50
2018-02-05T23:47:52.179Z,75.70
2018-02-05T23:50:26.052Z,76.30
2018-02-05T23:52:59.743Z,75.80
2018-02-05T23:55:33.820Z,75.60
2018-02-05T23:58:08.450Z,76.90
